Time;durP1;ratioP1;P1;durP2;ratioP2;P2;SDS_P1;SDS_P2;PMS_P1;PMS_P2;Temp;Humidity;BMP_temperature;BMP_pressure;BME280_temperature;BME280_humidity;BME280_pressure;Samples;Min_cycle;Max_cycle;Signal;HPM_P1;HPM_P2
2022/04/13 00:00:01;;;;;;;14.60;11.80;;;;;;;-1.28;66.75;97828.57;110133;1246;59709;-65
2022/04/13 00:02:59;;;;;;;16.70;10.90;;;;;;;-1.37;67.06;97827.38;110017;1247;71022;-65
2022/04/13 00:05:30;;;;;;;16.40;10.40;;;;;;;-1.44;67.75;97829.06;110119;1247;68495;-64
2022/04/13 00:08:05;;;;;;;;;;;;;;;-1.54;68.13;97827.35;110097;1247;69465;-65
2022/04/13 00:10:37;;;;;;;19.00;12.10;;;;;;;-1.66;69.22;97828.06;110110;1247;59706;-65
2022/04/13 00:13:07;;;;;;;16.20;10.90;;;;;;;-1.75;69.35;97827.20;110068;1247;59690;-66
2022/04/13 00:15:38;;;;;;;20.70;13.40;;;;;;;-1.80;69.97;97830.70;110185;1247;71514;-64
2022/04/13 00:18:10;;;;;;;18.40;13.80;;;;;;;-1.85;71.57;97827.73;109896;1247;68479;-65
2022/04/13 00:20:41;;;;;;;23.20;17.10;;;;;;;-1.89;71.73;97823.00;109992;1247;68699;-66
2022/04/13 00:23:11;;;;;;;26.00;18.80;;;;;;;-1.91;72.09;97823.88;110074;1247;59716;-67
2022/04/13 00:25:43;;;;;;;;;;;;;;;-1.90;71.40;97824.20;110147;1247;59631;-66
2022/04/13 00:28:14;;;;;;;17.10;11.90;;;;;;;-1.93;70.93;97823.41;110086;1247;71508;-69
2022/04/13 00:30:45;;;;;;;21.60;15.00;;;;;;;-1.95;70.91;97823.94;110118;1245;69602;-67
2022/04/13 00:33:15;;;;;;;17.00;12.10;;;;;;;-1.96;70.39;97820.89;110102;1245;67778;-65
2022/04/13 00:35:46;;;;;;;24.50;16.50;;;;;;;-1.99;70.45;97820.77;110116;1247;59732;-67
2022/04/13 00:38:19;;;;;;;15.80;11.60;;;;;;;-2.02;71.73;97818.60;110043;1246;59689;-66
2022/04/13 00:40:54;;;;;;;14.90;10.80;;;;;;;-2.09;70.97;97819.90;109863;1247;71509;-65
2022/04/13 00:43:24;;;;;;;11.80;10.30;;;;;;;-2.16;70.71;97817.29;110129;1246;68607;-66
2022/04/13 00:45:56;;;;;;;14.20;12.00;;;;;;;-2.24;70.83;97817.91;109945;1247;68825;-66
2022/04/13 00:48:37;;;;;;;20.80;13.40;;;;;;;-2.29;74.29;97820.21;110092;1247;60177;-66
2022/04/13 00:51:07;;;;;;;20.70;14.40;;;;;;;-2.35;74.51;97821.33;110104;1247;59702;-67
2022/04/13 00:53:40;;;;;;;;;;;;;;;-2.41;70.51;97819.36;109915;1248;70738;-67
2022/04/13 00:56:12;;;;;;;15.60;10.00;;;;;;;-2.46;69.98;97820.80;109838;1250;68619;-66
2022/04/13 00:58:45;;;;;;;22.50;15.20;;;;;;;-2.52;69.15;97819.86;109978;1249;68688;-66
2022/04/13 01:01:15;;;;;;;21.00;14.30;;;;;;;-2.57;70.70;97823.87;109901;1247;59692;-66
2022/04/13 01:03:54;;;;;;;15.40;10.90;;;;;;;-2.62;73.79;97825.81;110106;1247;59672;-66
2022/04/13 01:06:27;;;;;;;22.30;15.30;;;;;;;-2.66;76.38;97824.68;110122;1247;70907;-67
2022/04/13 01:08:58;;;;;;;20.60;13.50;;;;;;;-2.70;77.40;97822.67;110095;1247;68629;-67
2022/04/13 01:11:28;;;;;;;21.90;17.00;;;;;;;-2.75;77.52;97817.29;109934;1247;69064;-66
2022/04/13 01:13:59;;;;;;;25.10;16.50;;;;;;;-2.77;78.35;97819.71;110122;1246;59758;-66
2022/04/13 01:16:29;;;;;;;25.70;17.10;;;;;;;-2.81;77.54;97815.48;110045;1246;59739;-66
2022/04/13 01:19:00;;;;;;;20.10;15.30;;;;;;;-2.84;78.36;97815.70;110079;1247;70423;-67
2022/04/13 01:22:03;;;;;;;21.50;15.10;;;;;;;-2.87;77.74;97814.88;110124;1247;69524;-66
2022/04/13 01:24:34;;;;;;;13.20;9.10;;;;;;;-2.90;75.53;97815.60;110088;1247;68748;-66
2022/04/13 01:27:05;;;;;;;14.60;10.80;;;;;;;-2.93;72.95;97818.20;110063;1247;59733;-65
2022/04/13 01:29:35;;;;;;;21.10;14.60;;;;;;;-2.94;71.22;97816.85;110101;1247;59761;-65
2022/04/13 01:32:06;;;;;;;25.00;16.60;;;;;;;-2.95;70.88;97819.26;110100;1247;71723;-66
2022/04/13 01:34:36;;;;;;;15.10;10.80;;;;;;;-2.95;73.09;97820.79;110064;1247;69466;-66
2022/04/13 01:37:07;;;;;;;12.60;9.40;;;;;;;-2.97;74.53;97819.44;110071;1247;69499;-66
2022/04/13 01:39:37;;;;;;;24.90;17.00;;;;;;;-2.99;75.64;97818.28;110078;1245;59695;-67
2022/04/13 01:42:15;;;;;;;16.90;12.00;;;;;;;-2.99;76.62;97816.58;110128;1247;59679;-67
2022/04/13 01:44:55;;;;;;;21.90;16.10;;;;;;;-3.00;75.43;97818.98;109950;1247;70853;-68
2022/04/13 01:47:25;;;;;;;13.20;10.10;;;;;;;-2.98;77.89;97820.84;110082;1247;69341;-65
2022/04/13 01:49:55;;;;;;;17.90;14.00;;;;;;;-2.99;77.53;97820.01;110097;1247;69268;-67
2022/04/13 01:52:26;;;;;;;14.20;10.60;;;;;;;-2.98;78.40;97824.75;110120;1246;59761;-65
2022/04/13 01:54:56;;;;;;;18.60;12.50;;;;;;;-3.00;77.84;97826.99;110011;1245;59603;-66
2022/04/13 01:57:27;;;;;;;15.80;12.50;;;;;;;-3.02;78.75;97832.81;110085;1247;70748;-65
2022/04/13 01:59:57;;;;;;;19.70;15.00;;;;;;;-3.05;79.03;97834.90;110055;1247;69399;-66
2022/04/13 02:02:27;;;;;;;22.50;17.50;;;;;;;-3.05;78.99;97833.02;110072;1248;69416;-65
2022/04/13 02:04:58;;;;;;;22.60;15.70;;;;;;;-3.05;78.95;97834.39;110063;1247;59807;-66
2022/04/13 02:07:28;;;;;;;26.70;18.60;;;;;;;-3.08;79.18;97838.17;110115;1247;59663;-66
2022/04/13 02:09:59;;;;;;;26.40;19.20;;;;;;;-3.12;78.10;97844.52;110121;1246;72368;-65
2022/04/13 02:12:30;;;;;;;15.90;11.40;;;;;;;-3.17;77.76;97843.90;109999;1249;69630;-65
2022/04/13 02:15:01;;;;;;;16.80;13.00;;;;;;;-3.23;77.74;97848.74;109893;1247;69340;-68
2022/04/13 02:17:32;;;;;;;20.30;14.10;;;;;;;-3.29;78.63;97848.30;110092;1247;59665;-65
2022/04/13 02:20:02;;;;;;;15.80;11.10;;;;;;;-3.34;78.92;97850.73;110095;1247;59801;-65
2022/04/13 02:22:33;;;;;;;25.60;17.70;;;;;;;-3.40;77.60;97850.27;110093;1247;70688;-66
2022/04/13 02:25:19;;;;;;;26.40;17.40;;;;;;;-3.43;77.66;97854.23;109942;1248;68920;-65
2022/04/13 02:27:50;;;;;;;20.90;13.70;;;;;;;-3.44;80.20;97854.42;110056;1247;68939;-66
2022/04/13 02:30:20;;;;;;;;;;;;;;;-3.48;79.76;97855.98;109958;1247;59623;-66
2022/04/13 02:32:50;;;;;;;25.80;16.50;;;;;;;-3.54;79.43;97855.19;109961;1247;59735;-67
2022/04/13 02:35:20;;;;;;;;;;;;;;;-3.57;81.75;97855.05;110086;1247;71542;-67
2022/04/13 02:37:51;;;;;;;12.30;9.30;;;;;;;-3.61;81.40;97855.60;110074;1248;68733;-65
2022/04/13 02:40:22;;;;;;;16.40;10.70;;;;;;;-3.66;79.04;97855.82;109731;1247;69296;-65
2022/04/13 02:42:51;;;;;;;;;;;;;;;-3.72;76.91;97858.26;110103;1247;59758;-65
2022/04/13 02:45:22;;;;;;;11.40;7.70;;;;;;;-3.77;76.07;97858.48;110114;1247;59749;-64
2022/04/13 02:47:52;;;;;;;11.60;9.10;;;;;;;-3.81;75.20;97858.16;109887;1247;71394;-66
2022/04/13 02:50:21;;;;;;;10.30;8.50;;;;;;;-3.84;75.87;97856.66;109977;1247;69310;-64
2022/04/13 02:52:54;;;;;;;11.50;8.50;;;;;;;-3.87;77.10;97861.29;109921;1248;69310;-65
2022/04/13 02:55:25;;;;;;;11.90;8.80;;;;;;;-3.89;77.96;97859.25;110138;1246;59767;-65
2022/04/13 02:57:55;;;;;;;21.70;14.50;;;;;;;-3.92;76.98;97861.50;110148;1247;59681;-66
2022/04/13 03:00:26;;;;;;;21.70;15.30;;;;;;;-3.92;78.34;97866.09;109954;1247;70774;-64
2022/04/13 03:02:55;;;;;;;12.80;9.20;;;;;;;-3.93;79.35;97867.80;109869;1248;68453;-67
2022/04/13 03:05:26;;;;;;;23.40;16.80;;;;;;;-3.92;78.26;97870.70;109859;1248;70159;-66
2022/04/13 03:07:56;;;;;;;14.80;13.30;;;;;;;-3.91;80.48;97868.14;109886;1248;59783;-65
2022/04/13 03:10:26;;;;;;;18.10;14.80;;;;;;;-3.96;78.27;97870.23;109913;1248;59708;-66
2022/04/13 03:12:56;;;;;;;14.90;11.30;;;;;;;-3.98;78.31;97869.20;109880;1248;70969;-68
2022/04/13 03:15:27;;;;;;;14.70;11.80;;;;;;;-3.99;80.83;97870.58;109987;1247;69345;-66
2022/04/13 03:17:57;;;;;;;20.00;15.20;;;;;;;-4.00;80.73;97872.80;110093;1247;69434;-65
2022/04/13 03:20:26;;;;;;;26.70;18.50;;;;;;;-4.03;75.31;97870.61;109829;1247;59894;-65
2022/04/13 03:22:56;;;;;;;24.70;16.60;;;;;;;-4.06;74.42;97869.95;109876;1248;59685;-65
2022/04/13 03:25:26;;;;;;;17.40;13.20;;;;;;;-4.09;74.29;97872.02;110047;1247;71514;-65
2022/04/13 03:27:56;;;;;;;17.80;11.10;;;;;;;-4.12;74.81;97872.21;110012;1247;67687;-65
2022/04/13 03:30:26;;;;;;;16.70;13.40;;;;;;;-4.16;75.35;97873.77;110071;1247;68633;-65
2022/04/13 03:32:56;;;;;;;22.20;15.80;;;;;;;-4.19;79.44;97874.80;109878;1247;59620;-66
2022/04/13 03:35:26;;;;;;;25.70;16.10;;;;;;;-4.23;79.89;97873.99;109884;1249;59688;-64
2022/04/13 03:37:56;;;;;;;19.20;10.90;;;;;;;-4.26;80.11;97877.91;110021;1248;71677;-66
2022/04/13 03:40:26;;;;;;;21.10;13.60;;;;;;;-4.27;76.31;97878.44;109766;1249;68614;-66
2022/04/13 03:42:55;;;;;;;20.10;12.30;;;;;;;-4.28;77.24;97881.51;110071;1248;69455;-65
2022/04/13 03:45:25;;;;;;;17.50;10.80;;;;;;;-4.29;78.31;97880.67;109867;1249;59678;-66
2022/04/13 03:47:55;;;;;;;34.80;24.80;;;;;;;-4.29;80.98;97882.02;109833;1248;59681;-67
2022/04/13 03:50:25;;;;;;;34.80;20.50;;;;;;;-4.28;82.75;97882.70;109945;1248;70578;-64
2022/04/13 03:52:55;;;;;;;26.90;16.80;;;;;;;-4.27;81.81;97882.86;109995;1247;69355;-66
2022/04/13 03:55:25;;;;;;;16.70;11.40;;;;;;;-4.25;78.94;97879.10;110023;1247;68846;-65
2022/04/13 03:57:55;;;;;;;19.40;13.70;;;;;;;-4.24;78.09;97879.77;110104;1247;59689;-65
2022/04/13 04:00:26;;;;;;;16.00;11.50;;;;;;;-4.21;78.75;97879.23;110012;1248;59676;-66
2022/04/13 04:02:56;;;;;;;16.20;10.90;;;;;;;-4.20;77.70;97883.15;110112;1247;70772;-66
2022/04/13 04:05:26;;;;;;;18.70;13.50;;;;;;;-4.17;79.07;97887.05;109922;1249;69346;-66
2022/04/13 04:07:55;;;;;;;15.70;10.20;;;;;;;-4.09;81.48;97893.13;109810;1249;68926;-66
2022/04/13 04:10:25;;;;;;;22.00;15.20;;;;;;;-3.94;80.83;97898.48;109945;1248;59742;-66
2022/04/13 04:13:01;;;;;;;13.40;9.40;;;;;;;-3.72;80.90;97907.15;109956;1248;59686;-67
2022/04/13 04:15:32;;;;;;;25.10;14.70;;;;;;;-3.49;80.16;97908.66;109831;1248;71387;-65
2022/04/13 04:18:01;;;;;;;28.90;18.40;;;;;;;-3.30;79.47;97907.61;110045;1247;69358;-65
2022/04/13 04:20:31;;;;;;;18.30;9.00;;;;;;;-3.12;78.58;97909.14;109914;1247;69389;-65
2022/04/13 04:23:01;;;;;;;15.60;10.40;;;;;;;-2.91;77.87;97911.65;109933;1250;59761;-65
2022/04/13 04:25:31;;;;;;;25.30;15.30;;;;;;;-2.70;77.03;97909.18;110040;1247;59676;-66
2022/04/13 04:28:00;;;;;;;17.10;11.20;;;;;;;-2.52;76.65;97910.33;110041;1247;70905;-66
2022/04/13 04:30:31;;;;;;;31.60;18.30;;;;;;;-2.30;76.94;97911.07;109942;1247;69239;-66
2022/04/13 04:33:00;;;;;;;19.00;12.00;;;;;;;-1.99;77.11;97918.30;110026;1247;68811;-68
2022/04/13 04:35:31;;;;;;;23.40;14.20;;;;;;;-1.69;76.76;97919.21;110059;1247;59760;-67
2022/04/13 04:38:01;;;;;;;22.80;15.60;;;;;;;-1.43;75.15;97923.40;109975;1248;59693;-67
2022/04/13 04:40:30;;;;;;;26.60;17.70;;;;;;;-1.22;73.65;97929.02;110070;1247;70744;-67
2022/04/13 04:42:59;;;;;;;19.30;13.40;;;;;;;-1.03;72.77;97928.34;110094;1247;68590;-67
2022/04/13 04:45:29;;;;;;;18.10;13.20;;;;;;;-0.81;72.83;97929.64;110081;1247;69035;-67
2022/04/13 04:48:04;;;;;;;20.60;15.80;;;;;;;-0.55;71.94;97929.82;109925;1247;59708;-67
2022/04/13 04:50:34;;;;;;;16.40;12.00;;;;;;;-0.31;70.38;97933.77;110073;1247;59700;-67
2022/04/13 04:53:04;;;;;;;;;;;;;;;-0.08;70.93;97937.73;110012;1247;71421;-68
2022/04/13 04:55:34;;;;;;;31.80;20.60;;;;;;;0.23;69.45;97941.14;109775;1247;68577;-68
2022/04/13 04:58:03;;;;;;;37.90;22.30;;;;;;;0.65;71.39;97944.24;110009;1247;68458;-68
2022/04/13 05:00:36;;;;;;;24.10;15.20;;;;;;;0.98;71.42;97944.79;109916;1248;59690;-65
2022/04/13 05:03:08;;;;;;;23.80;15.40;;;;;;;1.34;70.84;97948.98;109948;1249;59686;-66
2022/04/13 05:05:41;;;;;;;37.50;25.60;;;;;;;1.67;69.44;97942.92;109837;1247;71630;-66
2022/04/13 05:08:10;;;;;;;38.40;26.50;;;;;;;1.94;67.82;97945.40;109709;1247;68738;-67
2022/04/13 05:10:42;;;;;;;32.20;24.60;;;;;;;2.06;66.08;97943.65;109830;1247;69451;-67
2022/04/13 05:13:12;;;;;;;32.40;23.60;;;;;;;2.28;67.33;97947.27;109832;1248;59718;-65
2022/04/13 05:15:41;;;;;;;24.10;18.20;;;;;;;2.47;64.62;97951.17;109875;1249;59711;-66
2022/04/13 05:18:11;;;;;;;26.40;20.30;;;;;;;2.59;60.41;97953.54;110127;1247;71968;-66
2022/04/13 05:20:40;;;;;;;23.50;19.40;;;;;;;2.75;59.95;97952.52;110006;1248;69418;-66
2022/04/13 05:23:10;;;;;;;29.00;21.90;;;;;;;2.74;59.08;97951.69;109848;1249;67687;-66
2022/04/13 05:25:39;;;;;;;26.20;19.50;;;;;;;2.93;58.75;97950.69;110087;1247;59682;-66
2022/04/13 05:28:09;;;;;;;28.50;20.30;;;;;;;3.17;58.94;97950.05;109937;1247;59763;-66
2022/04/13 05:30:38;;;;;;;25.40;18.70;;;;;;;3.43;58.42;97950.00;109815;1247;70777;-66
2022/04/13 05:33:08;;;;;;;21.70;18.00;;;;;;;3.77;59.78;97950.48;110085;1247;69568;-67
2022/04/13 05:35:38;;;;;;;19.10;15.50;;;;;;;4.28;60.90;97952.54;109816;1247;68865;-67
2022/04/13 05:38:07;;;;;;;20.00;14.80;;;;;;;4.74;62.32;97953.61;110018;1247;59643;-67
2022/04/13 05:40:36;;;;;;;20.20;17.30;;;;;;;5.18;62.21;97958.90;110101;1247;59673;-66
2022/04/13 05:43:06;;;;;;;25.60;20.20;;;;;;;5.51;61.12;97957.11;110020;1247;71582;-66
2022/04/13 05:45:35;;;;;;;20.50;14.70;;;;;;;5.79;58.89;97956.75;109916;1248;70157;-66
2022/04/13 05:48:05;;;;;;;27.00;20.70;;;;;;;5.93;55.51;97950.97;110079;1247;68625;-63
2022/04/13 05:50:34;;;;;;;24.90;18.00;;;;;;;5.59;53.46;97951.40;109838;1247;59761;-65
2022/04/13 05:53:03;;;;;;;26.10;18.40;;;;;;;5.25;53.92;97953.73;110069;1247;59675;-66
2022/04/13 05:55:33;;;;;;;26.20;19.10;;;;;;;5.34;53.63;97960.80;110150;1247;70363;-65
2022/04/13 05:58:02;;;;;;;21.70;17.60;;;;;;;5.16;53.07;97958.77;109671;1251;69339;-66
2022/04/13 06:00:31;;;;;;;23.80;18.10;;;;;;;5.31;53.29;97961.94;109973;1248;69536;-68
2022/04/13 06:03:01;;;;;;;19.80;15.90;;;;;;;5.45;52.84;97958.95;110085;1248;59683;-67
2022/04/13 06:05:32;;;;;;;18.10;14.30;;;;;;;5.53;52.91;97958.76;109797;1250;59680;-66
2022/04/13 06:08:02;;;;;;;16.80;13.40;;;;;;;6.15;53.20;97959.27;110098;1247;71921;-66
2022/04/13 06:10:31;;;;;;;14.70;12.10;;;;;;;6.73;52.84;97959.45;110112;1247;68669;-66
2022/04/13 06:13:01;;;;;;;14.50;10.80;;;;;;;7.28;51.85;97958.63;109995;1248;68695;-70
2022/04/13 06:15:32;;;;;;;16.20;12.70;;;;;;;7.88;51.98;97957.05;109896;1248;60103;-68
2022/04/13 06:18:01;;;;;;;18.30;13.80;;;;;;;8.14;46.20;97955.70;110075;1247;59601;-69
2022/04/13 06:20:31;;;;;;;19.30;14.50;;;;;;;8.42;46.53;97957.15;109980;1247;71487;-68
2022/04/13 06:23:00;;;;;;;16.20;14.40;;;;;;;8.03;45.38;97953.50;110008;1247;68624;-68
2022/04/13 06:25:30;;;;;;;19.00;16.00;;;;;;;7.71;47.56;97953.15;110082;1247;69544;-67
2022/04/13 06:28:00;;;;;;;18.20;15.30;;;;;;;7.90;46.98;97948.44;109610;1248;595393;-66
2022/04/13 06:30:29;;;;;;;17.30;12.60;;;;;;;8.13;46.62;97948.96;110114;1247;59663;-66
2022/04/13 06:32:58;;;;;;;17.40;14.20;;;;;;;8.81;46.90;97948.67;109991;1248;70914;-65
2022/04/13 06:35:28;;;;;;;17.80;12.80;;;;;;;8.97;44.95;97946.54;110041;1247;68470;-66
2022/04/13 06:37:58;;;;;;;13.60;12.10;;;;;;;9.23;44.81;97944.52;109798;1249;68656;-66
2022/04/13 06:40:27;;;;;;;14.20;11.00;;;;;;;9.55;44.13;97940.85;109929;1249;59683;-66
2022/04/13 06:42:56;;;;;;;17.50;11.80;;;;;;;9.60;42.09;97942.66;110006;1248;59814;-65
2022/04/13 06:45:26;;;;;;;;;;;;;;;9.60;41.88;97941.83;109946;1249;70727;-66
2022/04/13 06:47:55;;;;;;;10.50;7.50;;;;;;;9.50;39.85;97943.41;110008;1247;69444;-67
2022/04/13 06:50:24;;;;;;;9.10;7.10;;;;;;;9.57;40.00;97942.64;110002;1248;68722;-67
2022/04/13 06:52:54;;;;;;;8.80;7.60;;;;;;;9.67;38.82;97943.80;109959;1249;59753;-65
2022/04/13 06:55:23;;;;;;;;;;;;;;;9.67;38.31;97939.25;110090;1247;59700;-69
2022/04/13 06:57:52;;;;;;;10.20;8.10;;;;;;;9.59;39.14;97940.98;110296;1247;72161;-68
2022/04/13 07:00:22;;;;;;;10.30;7.90;;;;;;;9.76;37.77;97945.52;110089;1248;69211;-66
2022/04/13 07:02:57;;;;;;;8.30;5.60;;;;;;;10.02;37.01;97947.23;110002;1247;69465;-68
2022/04/13 07:05:42;;;;;;;8.70;7.10;;;;;;;10.26;35.19;97946.98;109990;1248;59702;-67
2022/04/13 07:08:11;;;;;;;11.70;9.30;;;;;;;10.70;34.85;97953.42;110100;1247;59920;-67
2022/04/13 07:10:41;;;;;;;12.00;8.50;;;;;;;11.30;34.68;97951.16;110013;1248;71049;-68
2022/04/13 07:13:14;;;;;;;9.10;7.50;;;;;;;11.38;33.24;97951.17;110032;1247;68647;-68
2022/04/13 07:15:44;;;;;;;9.30;6.00;;;;;;;11.42;32.38;97948.45;110031;1247;68752;-68
2022/04/13 07:18:13;;;;;;;9.90;7.90;;;;;;;11.51;31.67;97946.49;109824;1248;59745;-65
2022/04/13 07:20:43;;;;;;;7.90;6.40;;;;;;;11.44;30.79;97946.90;110071;1248;59692;-68
2022/04/13 07:23:12;;;;;;;8.50;6.50;;;;;;;11.44;30.91;97945.02;110044;1247;70774;-69
2022/04/13 07:25:41;;;;;;;6.00;4.90;;;;;;;10.58;30.66;97945.83;109884;1248;69429;-68
2022/04/13 07:28:12;;;;;;;6.60;4.20;;;;;;;10.95;29.71;97949.14;110069;1248;69532;-67
2022/04/13 07:30:41;;;;;;;5.60;5.00;;;;;;;11.12;30.11;97949.94;110062;1248;59707;-68
2022/04/13 07:33:10;;;;;;;5.30;3.70;;;;;;;11.66;28.96;97948.77;109862;1249;59757;-69
2022/04/13 07:35:39;;;;;;;4.50;3.40;;;;;;;11.81;28.38;97948.79;109760;1249;70765;-66
2022/04/13 07:38:09;;;;;;;5.60;3.90;;;;;;;11.96;27.73;97952.77;109990;1249;69050;-66
2022/04/13 07:40:38;;;;;;;6.50;5.20;;;;;;;11.94;27.98;97953.66;110095;1247;69917;-68
2022/04/13 07:43:07;;;;;;;6.10;4.60;;;;;;;11.94;28.60;97949.08;110131;1246;60102;-68
2022/04/13 07:45:38;;;;;;;5.00;4.40;;;;;;;11.91;29.78;97948.13;110090;1247;59635;-66
2022/04/13 07:48:07;;;;;;;6.30;4.70;;;;;;;12.40;29.50;97947.59;110049;1247;72261;-68
2022/04/13 07:50:36;;;;;;;7.80;5.70;;;;;;;12.96;27.89;97951.40;110096;1247;69401;-66
2022/04/13 07:53:06;;;;;;;6.20;4.70;;;;;;;13.49;28.22;97950.93;110071;1247;69512;-68
2022/04/13 07:55:35;;;;;;;4.50;3.80;;;;;;;13.79;27.89;97950.91;109992;1247;59760;-68
2022/04/13 07:58:04;;;;;;;4.70;4.10;;;;;;;14.13;26.47;97947.55;110234;1247;59662;-66
2022/04/13 08:00:34;;;;;;;6.60;5.20;;;;;;;14.35;26.23;97947.73;110188;1247;71556;-69
2022/04/13 08:03:04;;;;;;;4.80;4.30;;;;;;;14.26;25.80;97948.65;110269;1247;69663;-68
2022/04/13 08:05:50;;;;;;;6.40;4.60;;;;;;;14.23;25.78;97950.66;110109;1247;69460;-69
2022/04/13 08:08:19;;;;;;;6.20;4.50;;;;;;;14.02;26.54;97946.47;110222;1246;59691;-68
2022/04/13 08:10:48;;;;;;;5.70;4.20;;;;;;;13.99;27.24;97942.55;110078;1247;59736;-69
2022/04/13 08:13:17;;;;;;;5.50;4.30;;;;;;;14.82;27.19;97945.20;110076;1246;71577;-69
2022/04/13 08:16:07;;;;;;;6.70;4.60;;;;;;;15.35;25.16;97942.59;110093;1247;68642;-69
2022/04/13 08:18:57;;;;;;;6.20;5.20;;;;;;;15.09;23.84;97939.31;110039;1247;68907;-68
2022/04/13 08:21:27;;;;;;;5.10;4.40;;;;;;;15.31;24.97;97933.98;110061;1247;59692;-68
2022/04/13 08:23:56;;;;;;;5.90;3.90;;;;;;;15.78;24.55;97928.75;110092;1247;59631;-69
2022/04/13 08:26:25;;;;;;;6.40;5.30;;;;;;;16.20;24.51;97927.59;109995;1247;71532;-68
2022/04/13 08:28:54;;;;;;;4.60;4.00;;;;;;;15.92;24.82;97928.29;109798;1249;68690;-69
2022/04/13 08:31:23;;;;;;;5.00;4.10;;;;;;;15.51;24.96;97929.50;110218;1244;68630;-67
2022/04/13 08:33:53;;;;;;;5.80;4.00;;;;;;;15.72;24.80;97931.92;110000;1247;59671;-69
2022/04/13 08:36:22;;;;;;;4.90;3.50;;;;;;;16.41;24.32;97932.84;110018;1249;59656;-67
2022/04/13 08:38:52;;;;;;;5.90;4.40;;;;;;;16.82;23.28;97936.15;109809;1249;72268;-69
2022/04/13 08:41:36;;;;;;;4.60;3.60;;;;;;;16.77;22.97;97931.98;109872;1249;68632;-69
2022/04/13 08:44:15;;;;;;;4.00;3.30;;;;;;;17.17;23.37;97936.73;110025;1248;68629;-65
2022/04/13 08:46:45;;;;;;;5.40;3.80;;;;;;;17.02;22.57;97934.38;109840;1249;59733;-69
2022/04/13 08:49:15;;;;;;;5.10;3.40;;;;;;;16.47;21.64;97925.35;109812;1249;59713;-68
2022/04/13 08:52:04;;;;;;;4.80;2.90;;;;;;;16.24;22.51;97922.30;110098;1247;72242;-67
2022/04/13 08:54:53;;;;;;;5.50;3.50;;;;;;;16.67;22.88;97928.50;109828;1248;68647;-67
2022/04/13 08:57:24;;;;;;;3.70;3.00;;;;;;;16.96;22.45;97922.41;110027;1248;68646;-67
2022/04/13 09:00:13;;;;;;;5.00;2.80;;;;;;;17.46;21.75;97921.36;110108;1249;59761;-67
2022/04/13 09:02:56;;;;;;;3.70;3.30;;;;;;;18.06;21.59;97918.20;110063;1247;59673;-69
2022/04/13 09:05:33;;;;;;;4.20;3.30;;;;;;;17.07;20.93;97916.80;109866;1249;71497;-67
2022/04/13 09:08:09;;;;;;;5.70;3.60;;;;;;;16.62;21.92;97911.05;110017;1249;69743;-69
2022/04/13 09:10:41;;;;;;;5.40;3.20;;;;;;;16.49;21.66;97907.44;109869;1249;70311;-68
2022/04/13 09:13:12;;;;;;;4.90;3.40;;;;;;;16.57;21.94;97905.11;110040;1248;59713;-69
2022/04/13 09:15:43;;;;;;;3.20;2.80;;;;;;;17.13;22.46;97903.23;110077;1248;59685;-66
2022/04/13 09:18:17;;;;;;;4.00;3.50;;;;;;;17.79;21.70;97896.29;110041;1248;72255;-68
2022/04/13 09:20:48;;;;;;;3.90;3.50;;;;;;;18.06;21.37;97896.19;109941;1247;68863;-68
2022/04/13 09:23:20;;;;;;;5.40;4.30;;;;;;;17.79;20.25;97894.09;110035;1248;69415;-70
2022/04/13 09:25:51;;;;;;;4.50;3.10;;;;;;;18.10;21.18;97893.08;110228;1249;59771;-69
2022/04/13 09:28:20;;;;;;;4.50;3.70;;;;;;;18.87;20.92;97889.71;110163;1248;59728;-70
2022/04/13 09:30:50;;;;;;;3.80;3.40;;;;;;;18.86;20.58;97885.39;110139;1249;72057;-69
2022/04/13 09:33:19;;;;;;;11.00;3.80;;;;;;;19.52;20.10;97884.39;110007;1247;68752;-67
2022/04/13 09:35:48;;;;;;;;;;;;;;;19.92;20.17;97876.92;110001;1248;69533;-67
2022/04/13 09:38:19;;;;;;;4.30;3.30;;;;;;;20.27;19.71;97877.16;110047;1247;59751;-69
2022/04/13 09:40:51;;;;;;;14.70;4.70;;;;;;;19.97;19.42;97867.07;110058;1247;59720;-70
2022/04/13 09:43:24;;;;;;;5.40;3.50;;;;;;;20.01;20.42;97863.29;110232;1247;71559;-69
2022/04/13 09:45:55;;;;;;;8.00;4.00;;;;;;;19.29;20.88;97866.00;109931;1249;68597;-69
2022/04/13 09:48:26;;;;;;;5.20;3.10;;;;;;;19.15;20.81;97856.52;110181;1247;68480;-69
2022/04/13 09:50:59;;;;;;;4.40;3.30;;;;;;;19.30;20.90;97856.61;110205;1247;59705;-69
2022/04/13 09:53:28;;;;;;;3.40;2.90;;;;;;;19.78;20.68;97856.86;110218;1247;59671;-67
2022/04/13 09:56:02;;;;;;;4.00;2.80;;;;;;;20.22;20.34;97862.09;110068;1247;71664;-69
2022/04/13 09:58:33;;;;;;;3.40;2.30;;;;;;;20.64;19.98;97864.64;110081;1247;68811;-67
2022/04/13 10:01:06;;;;;;;4.30;2.90;;;;;;;20.45;19.36;97861.47;110122;1247;68438;-66
2022/04/13 10:03:35;;;;;;;3.80;3.00;;;;;;;20.18;18.00;97859.71;109860;1249;59696;-66
2022/04/13 10:06:06;;;;;;;8.80;4.30;;;;;;;18.92;19.64;97862.12;110053;1248;59739;-67
2022/04/13 10:08:35;;;;;;;4.50;2.90;;;;;;;18.89;18.96;97859.89;110003;1247;70821;-67
2022/04/13 10:11:08;;;;;;;3.20;2.40;;;;;;;18.75;19.91;97860.09;110125;1247;68611;-69
2022/04/13 10:13:41;;;;;;;4.60;2.50;;;;;;;19.51;19.61;97856.60;109895;1247;69414;-69
2022/04/13 10:16:14;;;;;;;3.80;2.80;;;;;;;20.17;18.64;97853.31;110093;1247;59683;-70
2022/04/13 10:18:55;;;;;;;3.60;2.30;;;;;;;20.43;18.66;97854.80;110111;1247;59750;-68
2022/04/13 10:21:47;;;;;;;3.70;2.30;;;;;;;20.11;17.67;97857.27;109965;1247;71680;-68
2022/04/13 10:24:28;;;;;;;6.00;2.70;;;;;;;19.81;18.28;97851.35;110036;1247;68616;-69
2022/04/13 10:27:08;;;;;;;3.20;2.60;;;;;;;19.84;19.00;97848.93;110022;1247;69367;-69
2022/04/13 10:29:44;;;;;;;4.60;2.50;;;;;;;20.12;19.46;97846.92;110078;1247;59695;-69
2022/04/13 10:32:14;;;;;;;2.90;2.00;;;;;;;19.77;18.82;97848.48;110221;1247;59662;-69
2022/04/13 10:34:49;;;;;;;3.30;2.40;;;;;;;19.90;18.26;97849.75;110084;1247;71573;-68
2022/04/13 10:37:20;;;;;;;3.20;2.10;;;;;;;20.43;17.98;97847.35;109998;1249;68748;-68
2022/04/13 10:39:54;;;;;;;2.80;2.10;;;;;;;20.14;18.27;97839.31;110066;1247;69401;-68
2022/04/13 10:42:23;;;;;;;3.70;2.40;;;;;;;21.05;18.15;97835.16;110043;1247;59667;-69
2022/04/13 10:44:52;;;;;;;;;;;;;;;21.07;18.52;97837.69;110242;1247;59682;-69
2022/04/13 10:47:28;;;;;;;3.80;2.50;;;;;;;21.21;18.36;97832.85;110218;1247;71755;-67
2022/04/13 10:50:00;;;;;;;3.10;1.90;;;;;;;21.56;18.90;97829.58;110068;1247;69413;-68
2022/04/13 10:53:00;;;;;;;3.20;2.10;;;;;;;22.03;17.97;97826.49;109907;1247;68508;-68
2022/04/13 10:55:33;;;;;;;3.40;2.20;;;;;;;22.18;17.11;97825.29;110148;1247;60086;-67
2022/04/13 10:58:25;;;;;;;4.80;2.90;;;;;;;21.90;17.05;97824.41;110077;1247;59665;-67
2022/04/13 11:01:03;;;;;;;3.50;2.60;;;;;;;21.92;17.17;97828.20;110060;1247;70787;-67
2022/04/13 11:03:36;;;;;;;4.60;2.40;;;;;;;22.06;17.29;97824.56;110126;1247;69334;-66
2022/04/13 11:06:08;;;;;;;3.60;2.70;;;;;;;22.17;17.56;97823.83;110093;1247;69419;-67
2022/04/13 11:08:56;;;;;;;2.90;2.10;;;;;;;21.46;18.16;97819.48;109966;1249;59692;-67
2022/04/13 11:11:28;;;;;;;3.40;2.50;;;;;;;21.09;17.66;97812.20;110104;1247;59684;-69
2022/04/13 11:13:57;;;;;;;4.40;2.60;;;;;;;21.21;17.87;97813.44;110240;1247;71395;-68
2022/04/13 11:16:29;;;;;;;3.20;2.10;;;;;;;20.78;17.86;97814.42;109765;1249;68655;-67
2022/04/13 11:19:05;;;;;;;3.40;2.30;;;;;;;21.10;16.92;97818.02;109801;1249;69433;-69
2022/04/13 11:21:55;;;;;;;3.10;2.40;;;;;;;20.77;17.31;97813.52;110096;1247;59699;-68
2022/04/13 11:24:35;;;;;;;4.00;2.70;;;;;;;21.07;16.83;97808.17;109975;1247;59688;-69
2022/04/13 11:27:06;;;;;;;4.10;1.90;;;;;;;20.98;16.48;97807.06;110080;1247;70802;-71
2022/04/13 11:29:43;;;;;;;3.10;2.10;;;;;;;20.29;17.28;97802.66;110195;1247;68448;-69
2022/04/13 11:32:15;;;;;;;4.30;2.50;;;;;;;19.97;17.69;97800.29;110234;1247;69804;-67
2022/04/13 11:34:46;;;;;;;5.00;2.70;;;;;;;18.58;18.15;97797.56;110248;1247;59753;-63
2022/04/13 11:37:16;;;;;;;2.50;1.90;;;;;;;18.29;19.06;97800.47;110060;1247;59689;-69
2022/04/13 11:39:59;;;;;;;2.70;2.10;;;;;;;19.28;18.95;97798.11;110048;1247;71559;-68